Time;durP1;ratioP1;P1;durP2;ratioP2;P2;SDS_P1;SDS_P2;PMS_P1;PMS_P2;Temp;Humidity;BMP_temperature;BMP_pressure;BME280_temperature;BME280_humidity;BME280_pressure;Samples;Min_cycle;Max_cycle;Signal;HPM_P1;HPM_P2
2023/09/03 00:00:08;;;;;;;0.70;0.70;;;;;16.70;96724.00;;;;5136623;27;20197;-62
2023/09/03 00:02:35;;;;;;;0.50;0.50;;;;;16.70;96719.00;;;;5137061;27;20193;-62
2023/09/03 00:05:03;;;;;;;5.83;1.37;;;;;16.70;96722.00;;;;5135892;27;20197;-62
2023/09/03 00:07:31;;;;;;;0.70;0.70;;;;;16.70;96714.00;;;;5136513;27;20205;-62
2023/09/03 00:09:58;;;;;;;1.57;1.47;;;;;16.80;96715.00;;;;5136601;27;20664;-62
2023/09/03 00:12:26;;;;;;;1.13;1.07;;;;;16.80;96705.00;;;;5136318;27;20185;-62
2023/09/03 00:14:55;;;;;;;0.70;0.70;;;;;16.70;96711.00;;;;5136466;27;20196;-62
2023/09/03 00:17:24;;;;;;;0.80;0.80;;;;;16.70;96704.00;;;;5136045;27;20266;-62
2023/09/03 00:19:51;;;;;;;1.13;1.03;;;;;16.70;96708.00;;;;5136045;27;20255;-62
2023/09/03 00:22:19;;;;;;;0.90;0.90;;;;;16.60;96714.00;;;;5136130;27;20209;-62
2023/09/03 00:24:46;;;;;;;1.30;1.23;;;;;16.60;96701.00;;;;5136487;27;20206;-62
2023/09/03 00:27:13;;;;;;;1.47;1.37;;;;;16.60;96708.00;;;;5136544;27;20723;-62
2023/09/03 00:29:41;;;;;;;1.70;0.93;;;;;16.70;96703.00;;;;5136151;27;20246;-62
2023/09/03 00:32:08;;;;;;;1.27;1.17;;;;;16.60;96705.00;;;;5136010;27;20186;-62
2023/09/03 00:34:37;;;;;;;1.47;1.37;;;;;16.60;96698.00;;;;5137001;27;20548;-62
2023/09/03 00:37:05;;;;;;;0.93;0.93;;;;;16.60;96709.00;;;;5136055;27;20692;-61
2023/09/03 00:39:33;;;;;;;1.07;1.03;;;;;16.70;96702.00;;;;5135545;27;20637;-62
2023/09/03 00:42:00;;;;;;;0.93;0.93;;;;;16.70;96709.00;;;;5135554;27;20266;-62
2023/09/03 00:44:28;;;;;;;1.30;1.20;;;;;16.60;96712.00;;;;5135483;27;20193;-62
2023/09/03 00:46:55;;;;;;;0.97;0.97;;;;;16.50;96711.00;;;;5135515;27;20619;-62
2023/09/03 00:49:24;;;;;;;1.13;1.13;;;;;16.50;96716.00;;;;5135407;27;20189;-62
2023/09/03 00:51:54;;;;;;;0.60;0.60;;;;;16.60;96718.00;;;;5136047;27;20194;-62
2023/09/03 00:54:23;;;;;;;1.30;1.30;;;;;16.40;96725.00;;;;5135503;27;20213;-62
2023/09/03 00:56:53;;;;;;;1.23;1.13;;;;;16.40;96722.00;;;;5135219;27;20201;-62
2023/09/03 00:59:23;;;;;;;1.93;1.07;;;;;16.10;96722.00;;;;5135459;27;20565;-62
2023/09/03 01:01:51;;;;;;;0.83;0.83;;;;;16.00;96724.00;;;;5135146;27;20703;-62
2023/09/03 01:04:19;;;;;;;1.00;1.00;;;;;16.00;96719.00;;;;5135075;27;20566;-62
2023/09/03 01:06:48;;;;;;;1.77;1.43;;;;;16.00;96713.00;;;;5135285;27;20205;-62
2023/09/03 01:09:18;;;;;;;1.50;1.27;;;;;16.00;96720.00;;;;5135079;27;20258;-62
2023/09/03 01:11:53;;;;;;;14.03;1.53;;;;;16.00;96715.00;;;;5135542;27;20193;-62
2023/09/03 01:14:30;;;;;;;0.63;0.63;;;;;16.10;96719.00;;;;5134849;27;20222;-62
2023/09/03 01:17:04;;;;;;;0.60;0.60;;;;;16.00;96719.00;;;;5134288;27;20679;-63
2023/09/03 01:19:56;;;;;;;1.70;1.60;;;;;16.10;96692.00;;;;5135528;27;20185;-62
2023/09/03 01:22:37;;;;;;;0.90;0.90;;;;;16.00;96695.00;;;;5135117;27;20224;-62
2023/09/03 01:25:23;;;;;;;1.43;1.33;;;;;16.10;96718.00;;;;5134922;27;20205;-62
2023/09/03 01:28:01;;;;;;;0.90;0.90;;;;;16.10;96727.00;;;;5134858;27;20692;-62
2023/09/03 01:30:30;;;;;;;1.00;1.00;;;;;16.20;96732.00;;;;5135104;27;20636;-62
2023/09/03 01:32:59;;;;;;;1.00;1.00;;;;;16.10;96729.00;;;;5134575;27;20197;-62
2023/09/03 01:35:27;;;;;;;0.87;0.87;;;;;16.10;96729.00;;;;5134639;27;20194;-62
2023/09/03 01:37:54;;;;;;;0.77;0.77;;;;;16.00;96734.00;;;;5134530;27;20695;-62
2023/09/03 01:40:22;;;;;;;0.90;0.90;;;;;16.00;96740.00;;;;5134514;27;20220;-62
2023/09/03 01:42:49;;;;;;;1.37;1.33;;;;;16.00;96747.00;;;;5134861;27;20304;-62
2023/09/03 01:45:17;;;;;;;0.80;0.80;;;;;16.00;96743.00;;;;5133409;27;20227;-62
2023/09/03 01:47:52;;;;;;;1.00;1.00;;;;;15.90;96748.00;;;;5134636;27;20561;-61
2023/09/03 01:50:29;;;;;;;0.97;0.97;;;;;15.90;96751.00;;;;5134452;27;20177;-62
2023/09/03 01:53:02;;;;;;;0.70;0.70;;;;;15.90;96755.00;;;;5134594;27;20173;-62
2023/09/03 01:55:33;;;;;;;0.73;0.73;;;;;15.80;96751.00;;;;5134206;27;20261;-62
2023/09/03 01:58:04;;;;;;;0.90;0.90;;;;;15.90;96751.00;;;;5132955;27;20304;-62
2023/09/03 02:00:32;;;;;;;0.60;0.60;;;;;15.90;96760.00;;;;5133331;27;20190;-61
2023/09/03 02:03:03;;;;;;;0.83;0.83;;;;;15.90;96767.00;;;;5134131;27;20221;-62
2023/09/03 02:05:30;;;;;;;0.80;0.80;;;;;15.90;96761.00;;;;5134256;27;20197;-62
2023/09/03 02:07:58;;;;;;;0.47;0.47;;;;;15.80;96762.00;;;;5134025;27;20250;-61
2023/09/03 02:10:25;;;;;;;0.80;0.80;;;;;15.80;96761.00;;;;5133980;27;20189;-62
2023/09/03 02:12:52;;;;;;;2.17;2.03;;;;;15.60;96768.00;;;;5134439;28;20575;-61
2023/09/03 02:15:20;;;;;;;0.87;0.87;;;;;15.60;96765.00;;;;5134477;28;20685;-62
2023/09/03 02:17:47;;;;;;;0.83;0.83;;;;;15.70;96762.00;;;;5133920;28;20731;-62
2023/09/03 02:20:16;;;;;;;0.70;0.70;;;;;15.70;96767.00;;;;5133860;28;20197;-61
2023/09/03 02:22:44;;;;;;;0.60;0.60;;;;;15.70;96765.00;;;;5134266;28;20217;-61
2023/09/03 02:25:11;;;;;;;0.77;0.77;;;;;15.70;96768.00;;;;5134121;28;20679;-61
2023/09/03 02:27:39;;;;;;;17.83;1.60;;;;;15.60;96777.00;;;;5135763;27;20224;-61
2023/09/03 02:30:07;;;;;;;2.00;1.40;;;;;15.70;96773.00;;;;5138205;27;20220;-61
2023/09/03 02:32:35;;;;;;;0.60;0.60;;;;;15.70;96773.00;;;;5139034;27;20194;-61
2023/09/03 02:35:02;;;;;;;1.33;1.23;;;;;15.60;96773.00;;;;5138324;27;20200;-61
2023/09/03 02:37:31;;;;;;;0.90;0.90;;;;;15.60;96773.00;;;;5138002;27;20300;-61
2023/09/03 02:39:58;;;;;;;0.53;0.53;;;;;15.60;96776.00;;;;5138555;27;20189;-61
2023/09/03 02:42:26;;;;;;;0.97;0.97;;;;;15.70;96768.00;;;;5137958;27;20205;-61
2023/09/03 02:44:53;;;;;;;1.33;1.33;;;;;15.60;96765.00;;;;5138034;27;20216;-61
2023/09/03 02:47:21;;;;;;;0.70;0.70;;;;;15.60;96766.00;;;;5136553;27;20270;-61
2023/09/03 02:49:48;;;;;;;1.43;1.37;;;;;15.60;96769.00;;;;5136801;27;20193;-61
2023/09/03 02:52:15;;;;;;;1.00;1.00;;;;;15.40;96767.00;;;;5137924;27;20184;-61
2023/09/03 02:54:47;;;;;;;1.73;1.63;;;;;15.50;96774.00;;;;5137774;27;20719;-61
2023/09/03 02:57:14;;;;;;;0.70;0.70;;;;;15.60;96773.00;;;;5137643;27;20216;-61
2023/09/03 02:59:44;;;;;;;1.33;1.27;;;;;15.60;96774.00;;;;5138167;27;20189;-61
2023/09/03 03:02:12;;;;;;;0.90;0.90;;;;;15.50;96772.00;;;;5138084;27;20270;-61
2023/09/03 03:04:39;;;;;;;1.57;1.47;;;;;15.40;96777.00;;;;5137626;27;20336;-61
2023/09/03 03:07:06;;;;;;;0.97;0.97;;;;;15.50;96785.00;;;;5137430;27;20292;-61
2023/09/03 03:09:34;;;;;;;0.83;0.83;;;;;15.40;96786.00;;;;5137493;27;20197;-61
2023/09/03 03:12:02;;;;;;;0.80;0.80;;;;;15.40;96793.00;;;;5137687;27;20193;-61
2023/09/03 03:14:30;;;;;;;1.10;1.00;;;;;15.50;96790.00;;;;5137833;27;20254;-61
2023/09/03 03:16:58;;;;;;;0.97;0.97;;;;;15.50;96790.00;;;;5135862;27;20247;-61
2023/09/03 03:19:25;;;;;;;1.70;1.10;;;;;15.40;96782.00;;;;5137510;27;20197;-61
2023/09/03 03:21:52;;;;;;;1.40;0.90;;;;;15.30;96772.00;;;;5137489;27;20213;-61
2023/09/03 03:24:20;;;;;;;0.73;0.70;;;;;15.20;96763.00;;;;5137235;27;20201;-61
2023/09/03 03:26:48;;;;;;;1.03;1.03;;;;;15.20;96767.00;;;;5137033;27;20205;-61
2023/09/03 03:29:16;;;;;;;1.23;1.13;;;;;15.20;96767.00;;;;5136979;27;20198;-61
2023/09/03 03:31:44;;;;;;;1.00;1.00;;;;;15.30;96777.00;;;;5136951;27;20194;-62
2023/09/03 03:34:11;;;;;;;0.63;0.63;;;;;15.20;96778.00;;;;5136485;27;20198;-61
2023/09/03 03:36:38;;;;;;;1.13;1.13;;;;;15.30;96787.00;;;;5137319;27;20213;-62
2023/09/03 03:39:06;;;;;;;3.77;1.83;;;;;15.20;96791.00;;;;5135941;27;20189;-62
2023/09/03 03:41:34;;;;;;;1.07;1.07;;;;;15.30;96799.00;;;;5136748;27;20200;-61
2023/09/03 03:44:01;;;;;;;0.77;0.77;;;;;15.10;96800.00;;;;5137009;27;20281;-62
2023/09/03 03:46:30;;;;;;;0.97;0.97;;;;;15.10;96801.00;;;;5137039;27;20213;-61
2023/09/03 03:48:57;;;;;;;0.60;0.60;;;;;15.10;96796.00;;;;5136907;27;20264;-62
2023/09/03 03:51:24;;;;;;;0.80;0.80;;;;;15.10;96799.00;;;;5136482;27;20613;-62
2023/09/03 03:53:52;;;;;;;0.67;0.67;;;;;15.00;96801.00;;;;5136490;27;20193;-62
2023/09/03 03:56:19;;;;;;;1.23;1.10;;;;;15.00;96803.00;;;;5136645;27;20209;-61
2023/09/03 03:58:47;;;;;;;0.93;0.93;;;;;15.00;96799.00;;;;5136529;27;20196;-62
2023/09/03 04:01:16;;;;;;;0.60;0.60;;;;;15.00;96799.00;;;;5136516;27;20250;-62
2023/09/03 04:03:46;;;;;;;0.70;0.70;;;;;15.10;96805.00;;;;5136490;27;20213;-61
2023/09/03 04:06:13;;;;;;;4.70;0.77;;;;;15.00;96809.00;;;;5136107;27;20226;-61
2023/09/03 04:08:43;;;;;;;1.50;0.97;;;;;14.90;96801.00;;;;5136435;27;20196;-61
2023/09/03 04:11:12;;;;;;;1.00;1.00;;;;;15.00;96814.00;;;;5136129;27;20189;-61
2023/09/03 04:13:40;;;;;;;1.13;1.13;;;;;14.90;96798.00;;;;5136295;27;20265;-61
2023/09/03 04:16:09;;;;;;;0.70;0.70;;;;;14.90;96802.00;;;;5136692;27;20299;-61
2023/09/03 04:18:37;;;;;;;0.90;0.90;;;;;14.90;96801.00;;;;5136012;27;20648;-61
2023/09/03 04:21:06;;;;;;;1.10;1.10;;;;;14.90;96805.00;;;;5136270;27;20593;-61
2023/09/03 04:23:33;;;;;;;1.23;1.23;;;;;14.90;96815.00;;;;5134892;27;20224;-61
2023/09/03 04:26:01;;;;;;;0.83;0.83;;;;;15.00;96816.00;;;;5136152;27;20667;-61
2023/09/03 04:28:28;;;;;;;0.93;0.93;;;;;15.00;96812.00;;;;5136347;27;20197;-61
2023/09/03 04:30:57;;;;;;;0.80;0.80;;;;;15.10;96811.00;;;;5135876;27;20197;-61
2023/09/03 04:33:24;;;;;;;0.87;0.87;;;;;15.00;96813.00;;;;5136049;27;20192;-61
2023/09/03 04:35:56;;;;;;;0.70;0.70;;;;;15.00;96803.00;;;;5136220;27;20232;-61
2023/09/03 04:38:27;;;;;;;0.70;0.70;;;;;15.00;96816.00;;;;5135835;27;20202;-61
2023/09/03 04:40:54;;;;;;;0.83;0.83;;;;;15.00;96823.00;;;;5135668;27;20192;-61
2023/09/03 04:43:23;;;;;;;0.90;0.90;;;;;14.90;96819.00;;;;5135622;27;20224;-61
2023/09/03 04:45:52;;;;;;;0.80;0.80;;;;;15.00;96822.00;;;;5135495;27;20185;-61
2023/09/03 04:48:20;;;;;;;0.97;0.97;;;;;15.00;96821.00;;;;5135374;27;20185;-61
2023/09/03 04:50:48;;;;;;;1.17;1.17;;;;;15.00;96828.00;;;;5135441;27;20198;-62
2023/09/03 04:53:16;;;;;;;1.17;1.17;;;;;15.00;96836.00;;;;5135587;27;20641;-61
2023/09/03 04:55:44;;;;;;;0.80;0.80;;;;;15.00;96829.00;;;;5135139;27;20582;-61
2023/09/03 04:58:12;;;;;;;0.70;0.70;;;;;14.90;96836.00;;;;5135372;27;20193;-61
2023/09/03 05:00:39;;;;;;;1.10;1.00;;;;;14.90;96844.00;;;;5135226;27;20193;-61
2023/09/03 05:03:07;;;;;;;0.80;0.80;;;;;14.90;96842.00;;;;5135165;27;20759;-61
2023/09/03 05:05:41;;;;;;;0.80;0.80;;;;;14.70;96830.00;;;;5135120;27;20273;-61
2023/09/03 05:08:09;;;;;;;1.80;1.70;;;;;14.60;96842.00;;;;5135397;27;20179;-61
2023/09/03 05:10:36;;;;;;;0.97;0.97;;;;;14.70;96843.00;;;;5135411;27;20263;-61
2023/09/03 05:13:06;;;;;;;1.50;1.40;;;;;14.90;96843.00;;;;5134857;27;20192;-61
2023/09/03 05:15:33;;;;;;;0.90;0.90;;;;;15.00;96848.00;;;;5135169;27;20597;-61
2023/09/03 05:18:01;;;;;;;0.77;0.77;;;;;14.90;96840.00;;;;5134776;27;20692;-61
2023/09/03 05:20:28;;;;;;;0.70;0.70;;;;;14.90;96843.00;;;;5134774;27;20246;-61
2023/09/03 05:22:55;;;;;;;1.23;0.70;;;;;15.00;96837.00;;;;5134885;27;20319;-61
2023/09/03 05:25:23;;;;;;;0.90;0.90;;;;;15.00;96849.00;;;;5134603;27;20201;-61
2023/09/03 05:27:50;;;;;;;0.70;0.70;;;;;15.10;96846.00;;;;5134759;27;20213;-61
2023/09/03 05:30:19;;;;;;;1.90;1.10;;;;;15.10;96846.00;;;;5134933;27;20197;-62
2023/09/03 05:32:47;;;;;;;1.70;1.33;;;;;15.20;96852.00;;;;5134629;27;20193;-61
2023/09/03 05:35:14;;;;;;;0.90;0.90;;;;;15.20;96857.00;;;;5134766;27;20189;-61
2023/09/03 05:37:42;;;;;;;0.70;0.70;;;;;15.20;96865.00;;;;5134479;27;20219;-61
2023/09/03 05:40:11;;;;;;;0.97;0.97;;;;;15.30;96871.00;;;;5134462;27;20193;-61
2023/09/03 05:42:38;;;;;;;0.70;0.70;;;;;15.20;96873.00;;;;5134633;27;20243;-61
2023/09/03 05:45:06;;;;;;;0.60;0.60;;;;;15.20;96885.00;;;;5134487;27;20692;-61
2023/09/03 05:47:35;;;;;;;0.87;0.87;;;;;15.20;96890.00;;;;5134580;27;20613;-61
2023/09/03 05:50:02;;;;;;;0.80;0.80;;;;;15.30;96888.00;;;;5134263;27;20186;-61
2023/09/03 05:52:30;;;;;;;1.17;1.10;;;;;15.40;96891.00;;;;5134363;27;20193;-61
2023/09/03 05:54:57;;;;;;;0.70;0.70;;;;;15.50;96891.00;;;;5134315;27;20204;-61
2023/09/03 05:57:24;;;;;;;0.60;0.60;;;;;15.50;96888.00;;;;5134162;27;20548;-61
2023/09/03 05:59:52;;;;;;;0.80;0.80;;;;;15.60;96878.00;;;;5134855;27;20545;-61
2023/09/03 06:02:20;;;;;;;2.57;1.23;;;;;15.70;96871.00;;;;5132274;27;20196;-61
2023/09/03 06:04:50;;;;;;;0.80;0.80;;;;;15.80;96871.00;;;;5134407;27;20581;-61
2023/09/03 06:07:18;;;;;;;0.90;0.90;;;;;15.80;96858.00;;;;5134246;27;20201;-63
2023/09/03 06:09:46;;;;;;;0.60;0.60;;;;;15.80;96873.00;;;;5134077;27;20200;-62
2023/09/03 06:12:13;;;;;;;1.40;1.30;;;;;15.90;96875.00;;;;5134224;27;20657;-62
2023/09/03 06:14:41;;;;;;;1.60;1.20;;;;;16.00;96879.00;;;;5132629;28;20193;-61
2023/09/03 06:17:08;;;;;;;0.77;0.77;;;;;16.10;96880.00;;;;5134030;28;20587;-61
2023/09/03 06:19:35;;;;;;;0.63;0.63;;;;;16.20;96890.00;;;;5134638;28;20276;-61
2023/09/03 06:22:04;;;;;;;1.37;0.83;;;;;16.30;96892.00;;;;5134126;28;20185;-61
2023/09/03 06:24:32;;;;;;;0.63;0.63;;;;;16.30;96889.00;;;;5133883;28;20587;-61
2023/09/03 06:26:59;;;;;;;2.03;1.30;;;;;16.00;96891.00;;;;5133809;28;20205;-61
2023/09/03 06:29:27;;;;;;;1.97;1.27;;;;;15.90;96882.00;;;;5134303;28;20668;-62
2023/09/03 06:31:54;;;;;;;1.43;0.77;;;;;16.10;96883.00;;;;5134190;28;20192;-62
2023/09/03 06:34:22;;;;;;;0.90;0.90;;;;;16.20;96889.00;;;;5133910;28;20287;-62
2023/09/03 06:36:50;;;;;;;0.80;0.80;;;;;16.40;96884.00;;;;5133579;28;20213;-62
2023/09/03 06:39:18;;;;;;;1.03;1.03;;;;;16.60;96899.00;;;;5133658;28;20664;-62
2023/09/03 06:41:46;;;;;;;0.70;0.70;;;;;16.70;96902.00;;;;5133618;28;20204;-62
2023/09/03 06:44:15;;;;;;;8.60;1.07;;;;;16.70;96912.00;;;;5133538;28;20217;-61
2023/09/03 06:46:42;;;;;;;0.90;0.90;;;;;16.80;96918.00;;;;5133835;28;20258;-61
2023/09/03 06:49:09;;;;;;;0.67;0.67;;;;;16.80;96920.00;;;;5133836;28;20217;-61
2023/09/03 06:51:37;;;;;;;0.70;0.70;;;;;17.00;96926.00;;;;5133628;28;20193;-61
2023/09/03 06:54:04;;;;;;;1.00;1.00;;;;;17.10;96927.00;;;;5133453;28;20246;-62
2023/09/03 06:56:33;;;;;;;0.60;0.60;;;;;17.20;96920.00;;;;5133528;28;20206;-61
2023/09/03 06:59:00;;;;;;;1.23;1.03;;;;;17.20;96928.00;;;;5133434;28;20204;-62
2023/09/03 07:01:28;;;;;;;6.27;1.20;;;;;17.20;96924.00;;;;5134038;28;20189;-62
2023/09/03 07:03:55;;;;;;;1.27;1.23;;;;;17.20;96928.00;;;;5133368;28;20224;-62
2023/09/03 07:06:23;;;;;;;0.97;0.97;;;;;17.20;96930.00;;;;5133487;28;20684;-62
2023/09/03 07:08:52;;;;;;;0.60;0.60;;;;;17.40;96934.00;;;;5133698;28;20242;-62
2023/09/03 07:11:20;;;;;;;2.23;1.43;;;;;17.40;96942.00;;;;5133397;28;20213;-62
2023/09/03 07:13:49;;;;;;;0.87;0.87;;;;;17.20;96946.00;;;;5133697;27;20190;-62
2023/09/03 07:16:16;;;;;;;0.50;0.50;;;;;17.20;96942.00;;;;5137070;27;20217;-62
2023/09/03 07:18:43;;;;;;;0.70;0.70;;;;;17.20;96955.00;;;;5137539;27;20557;-62
2023/09/03 07:21:11;;;;;;;0.70;0.70;;;;;17.30;96951.00;;;;5137494;27;20269;-62
2023/09/03 07:23:38;;;;;;;0.60;0.60;;;;;17.60;96949.00;;;;5136936;27;20576;-61
2023/09/03 07:26:08;;;;;;;0.83;0.83;;;;;17.70;96945.00;;;;5137367;27;20205;-61
2023/09/03 07:28:35;;;;;;;0.70;0.70;;;;;17.80;96953.00;;;;5137156;27;20269;-62
2023/09/03 07:31:04;;;;;;;0.70;0.63;;;;;17.80;96949.00;;;;5135655;27;20280;-62
2023/09/03 07:33:33;;;;;;;3.63;1.60;;;;;18.00;96955.00;;;;5136695;27;20193;-62
2023/09/03 07:36:01;;;;;;;0.70;0.70;;;;;18.20;96950.00;;;;5135370;27;20242;-62
2023/09/03 07:38:28;;;;;;;1.50;1.40;;;;;18.30;96949.00;;;;5136792;27;20197;-62
2023/09/03 07:40:55;;;;;;;0.50;0.50;;;;;18.40;96951.00;;;;5137371;27;20185;-62
2023/09/03 07:43:23;;;;;;;0.63;0.63;;;;;18.60;96943.00;;;;5135188;27;20217;-61
2023/09/03 07:45:50;;;;;;;3.07;2.47;;;;;18.60;96943.00;;;;5137394;27;20544;-61
2023/09/03 07:48:20;;;;;;;0.90;0.90;;;;;18.70;96950.00;;;;5136582;27;20197;-62
2023/09/03 07:50:49;;;;;;;0.57;0.57;;;;;18.90;96962.00;;;;5136544;27;20518;-62
2023/09/03 07:53:16;;;;;;;0.97;0.97;;;;;19.00;96967.00;;;;5136893;27;20189;-62
2023/09/03 07:55:44;;;;;;;0.80;0.80;;;;;19.20;96976.00;;;;5136640;27;20518;-62
2023/09/03 07:58:11;;;;;;;0.87;0.87;;;;;19.40;96975.00;;;;5136529;27;20196;-61
2023/09/03 08:00:40;;;;;;;0.60;0.60;;;;;19.40;96980.00;;;;5136618;27;20189;-61
2023/09/03 08:03:07;;;;;;;0.70;0.70;;;;;19.50;96978.00;;;;5136589;27;20189;-61
2023/09/03 08:05:36;;;;;;;0.40;0.40;;;;;19.50;96975.00;;;;5136507;27;20201;-61
2023/09/03 08:08:04;;;;;;;0.80;0.80;;;;;19.50;96976.00;;;;5137221;27;20208;-61
2023/09/03 08:10:31;;;;;;;0.40;0.40;;;;;19.60;96977.00;;;;5137143;27;20197;-61
2023/09/03 08:12:59;;;;;;;0.60;0.60;;;;;19.70;96983.00;;;;5135952;27;20193;-61
2023/09/03 08:15:26;;;;;;;1.13;1.13;;;;;19.60;96989.00;;;;5136061;27;20198;-62
2023/09/03 08:17:53;;;;;;;1.03;0.70;;;;;19.80;96987.00;;;;5136760;27;20715;-62
2023/09/03 08:20:21;;;;;;;2.47;1.70;;;;;19.90;96988.00;;;;5136052;27;20268;-62
2023/09/03 08:22:50;;;;;;;0.90;0.90;;;;;19.90;96989.00;;;;5136109;27;20215;-62
2023/09/03 08:25:19;;;;;;;0.60;0.60;;;;;20.00;97003.00;;;;5135459;27;20296;-62
2023/09/03 08:27:48;;;;;;;0.70;0.70;;;;;19.90;96996.00;;;;5136698;27;20209;-62
2023/09/03 08:30:17;;;;;;;0.50;0.50;;;;;20.20;96993.00;;;;5136834;27;20201;-61
2023/09/03 08:32:44;;;;;;;0.93;0.93;;;;;20.40;97001.00;;;;5135988;27;20608;-61
2023/09/03 08:35:11;;;;;;;0.73;0.73;;;;;20.50;97003.00;;;;5135763;27;20189;-61
2023/09/03 08:37:39;;;;;;;0.63;0.63;;;;;20.50;96999.00;;;;5136522;27;20213;-61
2023/09/03 08:40:09;;;;;;;1.23;1.13;;;;;20.60;97008.00;;;;5135451;27;20246;-62
2023/09/03 08:42:40;;;;;;;1.07;1.07;;;;;20.50;97010.00;;;;5135745;27;20181;-62
2023/09/03 08:45:12;;;;;;;1.53;1.43;;;;;20.80;97001.00;;;;5135512;27;20197;-62
2023/09/03 08:47:44;;;;;;;0.60;0.60;;;;;21.00;97003.00;;;;5135359;27;20223;-61
2023/09/03 08:50:12;;;;;;;0.63;0.63;;;;;21.20;97008.00;;;;5135383;27;20182;-61
2023/09/03 08:52:40;;;;;;;0.60;0.60;;;;;21.30;96993.00;;;;5135427;27;20213;-61
2023/09/03 08:55:11;;;;;;;1.37;1.27;;;;;21.40;96998.00;;;;5135547;27;20234;-61
2023/09/03 08:57:39;;;;;;;0.68;0.68;;;;;21.80;97004.00;;;;5135330;27;20241;-61
2023/09/03 09:00:07;;;;;;;0.70;0.70;;;;;21.90;97004.00;;;;5135155;27;20548;-61
2023/09/03 09:02:36;;;;;;;1.08;1.08;;;;;22.20;96998.00;;;;5134133;27;20198;-61
2023/09/03 09:05:05;;;;;;;0.70;0.70;;;;;22.20;97000.00;;;;5133714;27;20591;-61
2023/09/03 09:07:33;;;;;;;0.50;0.50;;;;;22.30;96998.00;;;;5135807;27;20213;-61
2023/09/03 09:10:06;;;;;;;0.60;0.60;;;;;22.50;96998.00;;;;5135990;27;20197;-61
2023/09/03 09:12:42;;;;;;;0.80;0.80;;;;;22.50;97000.00;;;;5135270;27;20586;-61
2023/09/03 09:15:10;;;;;;;0.57;0.57;;;;;22.50;97011.00;;;;5135261;27;20177;-61
2023/09/03 09:17:38;;;;;;;0.98;0.90;;;;;22.70;97007.00;;;;5135075;27;20282;-61
2023/09/03 09:20:06;;;;;;;0.50;0.50;;;;;22.90;97006.00;;;;5134749;27;20188;-61
2023/09/03 09:22:40;;;;;;;0.47;0.47;;;;;23.20;97002.00;;;;5134741;27;20194;-62
2023/09/03 09:25:09;;;;;;;0.60;0.60;;;;;23.30;97013.00;;;;5135279;27;20197;-62
2023/09/03 09:27:38;;;;;;;0.63;0.63;;;;;23.20;97011.00;;;;5134604;27;20213;-62
2023/09/03 09:30:11;;;;;;;0.80;0.80;;;;;23.40;97011.00;;;;5134965;27;20193;-62
2023/09/03 09:32:38;;;;;;;0.70;0.70;;;;;23.30;97012.00;;;;5134883;27;20288;-62
2023/09/03 09:35:06;;;;;;;0.60;0.60;;;;;23.50;97011.00;;;;5135060;27;20205;-62
2023/09/03 09:37:39;;;;;;;0.40;0.40;;;;;23.60;97018.00;;;;5134477;27;20213;-61
2023/09/03 09:40:08;;;;;;;0.63;0.63;;;;;23.80;97026.00;;;;5136350;27;20181;-62
2023/09/03 09:42:51;;;;;;;0.65;0.65;;;;;23.90;97024.00;;;;5135471;27;20190;-62
2023/09/03 09:45:19;;;;;;;0.50;0.50;;;;;24.00;97021.00;;;;5135483;27;20209;-62
2023/09/03 09:47:46;;;;;;;0.77;0.77;;;;;24.10;97019.00;;;;5134759;27;20205;-62
2023/09/03 09:50:14;;;;;;;0.50;0.50;;;;;24.10;97028.00;;;;5134833;27;20189;-62
2023/09/03 09:52:41;;;;;;;0.57;0.57;;;;;24.20;97028.00;;;;5134571;27;20651;-62
2023/09/03 09:55:16;;;;;;;0.30;0.30;;;;;24.30;97023.00;;;;5134521;27;20190;-62
2023/09/03 09:57:51;;;;;;;0.60;0.60;;;;;24.40;97028.00;;;;5134351;27;20213;-62
2023/09/03 10:00:33;;;;;;;0.55;0.55;;;;;24.30;97027.00;;;;5134456;27;20185;-62
2023/09/03 10:03:00;;;;;;;0.80;0.80;;;;;24.40;97036.00;;;;5134485;27;20182;-62
2023/09/03 10:05:28;;;;;;;2.22;1.40;;;;;24.30;97031.00;;;;5134130;27;20209;-62
2023/09/03 10:07:56;;;;;;;0.50;0.50;;;;;24.50;97042.00;;;;5134024;27;20220;-62
2023/09/03 10:10:24;;;;;;;1.20;0.85;;;;;24.60;97042.00;;;;5134391;27;20238;-62
2023/09/03 10:12:54;;;;;;;0.65;0.65;;;;;24.60;97040.00;;;;5134079;27;20238;-62
2023/09/03 10:15:22;;;;;;;0.88;0.88;;;;;24.60;97032.00;;;;5134195;27;20238;-62
2023/09/03 10:17:53;;;;;;;0.68;0.68;;;;;24.80;97025.00;;;;5134285;28;20330;-62
2023/09/03 10:20:22;;;;;;;0.63;0.63;;;;;24.90;97037.00;;;;5134448;28;20230;-61
2023/09/03 10:22:52;;;;;;;0.73;0.73;;;;;25.00;97042.00;;;;5134433;28;20632;-61
2023/09/03 10:25:22;;;;;;;0.50;0.50;;;;;24.90;97045.00;;;;5134190;28;20224;-61
2023/09/03 10:27:57;;;;;;;0.65;0.65;;;;;24.70;97047.00;;;;5133797;28;20213;-61
2023/09/03 10:30:29;;;;;;;0.40;0.40;;;;;24.70;97042.00;;;;5133931;28;20185;-62
2023/09/03 10:32:57;;;;;;;0.60;0.60;;;;;24.50;97040.00;;;;5134171;28;20601;-62
2023/09/03 10:35:25;;;;;;;0.70;0.70;;;;;24.60;97031.00;;;;5133799;28;20196;-61
2023/09/03 10:37:53;;;;;;;0.52;0.52;;;;;24.90;97025.00;;;;5133691;28;20255;-61
2023/09/03 10:40:22;;;;;;;0.50;0.50;;;;;25.00;97021.00;;;;5134063;28;20193;-62
2023/09/03 10:42:50;;;;;;;0.60;0.60;;;;;25.20;97017.00;;;;5134247;28;20192;-62
2023/09/03 10:45:19;;;;;;;0.70;0.70;;;;;25.40;97022.00;;;;5133662;28;20217;-62
2023/09/03 10:48:03;;;;;;;0.70;0.70;;;;;25.60;97026.00;;;;5134259;27;20213;-62
2023/09/03 10:50:44;;;;;;;1.17;1.15;;;;;25.90;97026.00;;;;5138352;27;20193;-62
2023/09/03 10:53:26;;;;;;;1.33;0.98;;;;;26.20;97016.00;;;;5138054;27;20177;-62
2023/09/03 10:56:11;;;;;;;1.38;0.85;;;;;26.40;97018.00;;;;5135415;27;20212;-62
2023/09/03 10:58:54;;;;;;;0.60;0.60;;;;;26.30;97013.00;;;;5138156;27;20509;-62
2023/09/03 11:01:26;;;;;;;0.68;0.68;;;;;26.30;97015.00;;;;5138071;27;20209;-62
2023/09/03 11:03:55;;;;;;;0.57;0.57;;;;;26.20;97012.00;;;;5137457;27;20235;-62
2023/09/03 11:06:23;;;;;;;0.77;0.77;;;;;26.60;97006.00;;;;5137949;27;20675;-62
2023/09/03 11:09:23;;;;;;;0.50;0.50;;;;;26.60;97022.00;;;;5137616;27;20185;-62
2023/09/03 11:11:51;;;;;;;0.60;0.60;;;;;26.50;97030.00;;;;5137688;27;20529;-62
2023/09/03 11:14:19;;;;;;;0.70;0.70;;;;;26.30;97032.00;;;;5137747;27;20190;-62
2023/09/03 11:16:48;;;;;;;0.60;0.60;;;;;26.30;97028.00;;;;5137425;27;20209;-62
2023/09/03 11:19:15;;;;;;;0.77;0.77;;;;;26.20;97027.00;;;;5136078;27;20189;-62
2023/09/03 11:21:43;;;;;;;0.82;0.82;;;;;26.20;97029.00;;;;5137585;27;20189;-62
2023/09/03 11:24:15;;;;;;;0.60;0.60;;;;;26.10;97032.00;;;;5138290;27;20189;-62
2023/09/03 11:26:43;;;;;;;0.95;0.95;;;;;26.50;97009.00;;;;5138130;27;20217;-63
2023/09/03 11:29:20;;;;;;;0.70;0.70;;;;;26.80;96993.00;;;;5138957;27;20647;-62
2023/09/03 11:31:50;;;;;;;0.68;0.68;;;;;27.00;96993.00;;;;5138688;27;20181;-63
2023/09/03 11:34:18;;;;;;;0.82;0.82;;;;;27.20;97001.00;;;;5137981;27;20197;-62
2023/09/03 11:36:46;;;;;;;0.65;0.65;;;;;27.30;97013.00;;;;5138104;27;20730;-62
2023/09/03 11:39:16;;;;;;;0.50;0.50;;;;;27.20;97011.00;;;;5137654;27;20190;-62
2023/09/03 11:41:43;;;;;;;0.40;0.40;;;;;27.20;97004.00;;;;5137034;27;20193;-62
2023/09/03 11:44:15;;;;;;;0.50;0.50;;;;;27.30;97015.00;;;;5137415;27;20192;-62
2023/09/03 11:46:58;;;;;;;0.50;0.50;;;;;27.30;97011.00;;;;5137369;27;20213;-62
2023/09/03 11:49:26;;;;;;;0.60;0.60;;;;;27.30;97012.00;;;;5135763;27;20652;-62
2023/09/03 11:51:53;;;;;;;4.30;0.90;;;;;27.50;97014.00;;;;5136830;27;20185;-62
2023/09/03 11:54:24;;;;;;;0.70;0.70;;;;;27.40;97026.00;;;;5136948;27;20227;-63
2023/09/03 11:56:54;;;;;;;0.65;0.65;;;;;27.30;97012.00;;;;5137181;27;20205;-63
2023/09/03 11:59:22;;;;;;;0.75;0.75;;;;;27.70;97022.00;;;;5136973;27;20194;-62
2023/09/03 12:01:50;;;;;;;0.50;0.50;;;;;27.90;97010.00;;;;5137015;27;20224;-62
2023/09/03 12:04:19;;;;;;;0.80;0.80;;;;;28.00;97013.00;;;;5136790;27;20221;-62
2023/09/03 12:06:46;;;;;;;0.70;0.70;;;;;28.10;97021.00;;;;5137127;27;20699;-64
2023/09/03 12:09:15;;;;;;;0.90;0.90;;;;;28.20;97030.00;;;;5135509;27;20197;-62
2023/09/03 12:11:42;;;;;;;0.85;0.85;;;;;28.40;97020.00;;;;5136456;27;20189;-63
2023/09/03 12:14:10;;;;;;;0.50;0.50;;;;;28.50;97027.00;;;;5136553;27;20232;-62
2023/09/03 12:16:46;;;;;;;0.65;0.65;;;;;28.30;97030.00;;;;5136832;27;20303;-62
2023/09/03 12:19:14;;;;;;;0.60;0.60;;;;;28.40;97037.00;;;;5136826;27;20177;-63
2023/09/03 12:21:43;;;;;;;0.73;0.73;;;;;28.40;97026.00;;;;5136251;27;20205;-63
2023/09/03 12:24:10;;;;;;;0.55;0.55;;;;;28.10;97030.00;;;;5136139;27;20194;-63
2023/09/03 12:26:38;;;;;;;0.60;0.60;;;;;28.10;97024.00;;;;5135999;27;20313;-62